Time;durP1;ratioP1;P1;durP2;ratioP2;P2;SDS_P1;SDS_P2;PMS_P1;PMS_P2;Temp;Humidity;BMP_temperature;BMP_pressure;BME280_temperature;BME280_humidity;BME280_pressure;Samples;Min_cycle;Max_cycle;Signal;HPM_P1;HPM_P2
2021/07/12 00:00:23;;;;;;;;;;;;;;;20.69;63.29;99409.25;5091482;28;853;-61
2021/07/12 00:02:51;;;;;;;;;;;;;;;20.72;63.02;99411.09;5091459;28;793;-63
2021/07/12 00:05:18;;;;;;;;;;;;;;;20.71;62.99;99408.75;5091429;28;1940;-62
2021/07/12 00:07:45;;;;;;;;;;;;;;;20.73;62.88;99414.66;5091418;28;838;-62
2021/07/12 00:10:13;;;;;;;;;;;;;;;20.75;62.89;99417.78;5091604;28;893;-63
2021/07/12 00:12:41;;;;;;;;;;;;;;;20.80;62.62;99422.72;5091432;28;1055;-62
2021/07/12 00:15:08;;;;;;;;;;;;;;;20.86;62.34;99412.34;5090632;28;1206;-63
2021/07/12 00:17:34;;;;;;;;;;;;;;;20.89;62.25;99419.84;5071143;28;814;-63
2021/07/12 00:20:03;;;;;;;;;;;;;;;20.90;62.07;99409.38;5071076;28;928;-62
2021/07/12 00:22:30;;;;;;;;;;;;;;;20.89;62.08;99405.78;5071040;28;806;-64
2021/07/12 00:24:56;;;;;;;;;;;;;;;20.82;62.52;99408.97;5070847;28;1910;-63
2021/07/12 00:27:23;;;;;;;;;;;;;;;20.78;62.70;99399.94;5069644;28;734;-63
2021/07/12 00:29:50;;;;;;;;;;;;;;;20.74;62.81;99404.97;5070934;28;893;-63
2021/07/12 00:32:16;;;;;;;;;;;;;;;20.68;62.94;99402.09;5071417;28;841;-62
2021/07/12 00:34:43;;;;;;;;;;;;;;;20.63;63.15;99408.34;5074656;28;950;-65
2021/07/12 00:37:08;;;;;;;;;;;;;;;20.55;63.64;99412.78;5074564;28;830;-63
2021/07/12 00:39:35;;;;;;;;;;;;;;;20.51;63.68;99412.97;5074583;28;837;-63
2021/07/12 00:42:02;;;;;;;;;;;;;;;20.49;63.59;99414.72;5074455;28;872;-64
2021/07/12 00:44:28;;;;;;;;;;;;;;;20.44;63.95;99421.75;5074431;28;1948;-64
2021/07/12 00:46:55;;;;;;;;;;;;;;;20.40;64.19;99430.34;5074456;28;814;-63
2021/07/12 00:49:22;;;;;;;;;;;;;;;20.38;64.27;99426.47;5074234;28;903;-62
2021/07/12 00:51:49;;;;;;;;;;;;;;;20.37;64.37;99427.72;5074615;28;798;-64
2021/07/12 00:54:15;;;;;;;;;;;;;;;20.35;64.56;99428.19;5074081;28;888;-63
2021/07/12 00:56:42;;;;;;;;;;;;;;;20.30;64.81;99423.25;5074247;28;886;-64
2021/07/12 00:59:08;;;;;;;;;;;;;;;20.31;64.75;99421.22;5074128;28;959;-63
2021/07/12 01:01:35;;;;;;;;;;;;;;;20.37;64.71;99422.88;5074151;28;890;-63
2021/07/12 01:04:01;;;;;;;;;;;;;;;20.45;64.41;99422.53;5074036;28;1909;-63
2021/07/12 01:06:27;;;;;;;;;;;;;;;20.45;64.51;99426.09;5074038;28;870;-64
2021/07/12 01:08:53;;;;;;;;;;;;;;;20.48;64.35;99427.94;5073972;28;815;-63
2021/07/12 01:11:38;;;;;;;;;;;;;;;20.50;64.35;99425.44;5073865;28;922;-63
2021/07/12 01:14:22;;;;;;;;;;;;;;;20.48;64.14;99419.53;5073856;28;1430;-64
2021/07/12 01:17:01;;;;;;;;;;;;;;;20.42;64.53;99432.69;5073887;28;1104;-64
2021/07/12 01:19:50;;;;;;;;;;;;;;;20.42;64.64;99432.69;5073821;28;834;-63
2021/07/12 01:22:32;;;;;;;;;;;;;;;20.40;64.83;99438.00;5073922;28;873;-63
2021/07/12 01:25:18;;;;;;;;;;;;;;;20.43;64.80;99444.69;5073746;28;1914;-64
2021/07/12 01:28:10;;;;;;;;;;;;;;;20.35;64.86;99445.03;5073722;28;834;-64
2021/07/12 01:30:37;;;;;;;;;;;;;;;20.33;65.43;99441.16;5073584;28;818;-63
2021/07/12 01:33:11;;;;;;;;;;;;;;;20.43;65.29;99442.66;5073704;28;854;-64
2021/07/12 01:36:02;;;;;;;;;;;;;;;20.44;65.01;99441.41;5073524;28;889;-64
2021/07/12 01:38:34;;;;;;;;;;;;;;;20.52;65.04;99436.97;5063377;28;1120;-64
2021/07/12 01:41:03;;;;;;;;;;;;;;;20.70;64.68;99441.69;5073497;28;870;-65
2021/07/12 01:43:35;;;;;;;;;;;;;;;20.75;64.34;99440.25;5073017;28;881;-65
2021/07/12 01:46:03;;;;;;;;;;;;;;;20.64;64.09;99446.41;5073043;28;813;-64
2021/07/12 01:48:42;;;;;;;;;;;;;;;20.21;65.12;99450.63;5073332;28;865;-64
2021/07/12 01:51:10;;;;;;;;;;;;;;;19.78;66.29;99447.91;5073327;28;814;-64
2021/07/12 01:53:36;;;;;;;;;;;;;;;19.46;67.35;99452.16;5055291;28;1428;-64
2021/07/12 01:56:41;;;;;;;;;;;;;;;19.12;68.23;99454.16;5073374;28;794;-64
2021/07/12 01:59:13;;;;;;;;;;;;;;;18.80;69.57;99452.75;4991866;28;1144;-65
2021/07/12 02:01:41;;;;;;;;;;;;;;;18.66;70.24;99459.75;4991746;28;870;-64
2021/07/12 02:04:11;;;;;;;;;;;;;;;18.64;70.87;99456.63;4991926;28;1886;-64
2021/07/12 02:06:39;;;;;;;;;;;;;;;18.69;70.69;99448.41;4991548;28;811;-64
2021/07/12 02:09:07;;;;;;;;;;;;;;;18.65;70.81;99447.00;4991608;28;811;-64
2021/07/12 02:11:34;;;;;;;;;;;;;;;18.67;71.07;99441.69;4991417;28;859;-64
2021/07/12 02:14:02;;;;;;;;;;;;;;;19.07;70.34;99437.97;4991223;28;971;-64
2021/07/12 02:16:29;;;;;;;;;;;;;;;19.52;68.62;99436.28;5002394;28;1421;-62
2021/07/12 02:18:56;;;;;;;;;;;;;;;19.87;67.36;99431.00;5011007;28;864;-64
2021/07/12 02:21:24;;;;;;;;;;;;;;;20.13;66.43;99424.94;5010776;28;994;-64
2021/07/12 02:23:51;;;;;;;;;;;;;;;20.22;65.91;99424.88;5010754;28;1985;-64
2021/07/12 02:26:18;;;;;;;;;;;;;;;20.21;65.96;99426.13;5010765;28;945;-63
2021/07/12 02:28:45;;;;;;;;;;;;;;;20.21;65.90;99426.13;5014398;28;1153;-63
2021/07/12 02:31:15;;;;;;;;;;;;;;;20.17;66.09;99426.31;5092671;28;877;-64
2021/07/12 02:33:42;;;;;;;;;;;;;;;20.18;66.15;99433.47;5092590;28;889;-64
2021/07/12 02:36:09;;;;;;;;;;;;;;;20.22;66.03;99422.06;5092599;28;865;-64
2021/07/12 02:38:39;;;;;;;;;;;;;;;20.25;65.81;99431.53;5092523;28;857;-64
2021/07/12 02:41:06;;;;;;;;;;;;;;;20.24;65.86;99422.34;5092694;28;814;-63
2021/07/12 02:43:35;;;;;;;;;;;;;;;20.29;65.62;99426.53;5092417;28;806;-64
2021/07/12 02:46:02;;;;;;;;;;;;;;;20.33;65.48;99427.13;5093037;28;771;-64
2021/07/12 02:48:29;;;;;;;;;;;;;;;20.26;65.38;99425.47;5092675;28;885;-64
2021/07/12 02:50:57;;;;;;;;;;;;;;;20.25;65.47;99429.53;5092578;28;818;-63
2021/07/12 02:53:34;;;;;;;;;;;;;;;20.02;65.53;99427.50;5093079;28;851;-63
2021/07/12 02:56:00;;;;;;;;;;;;;;;19.65;66.81;99428.44;5092261;28;841;-63
2021/07/12 02:58:27;;;;;;;;;;;;;;;19.44;67.29;99426.66;5073934;28;1242;-63
2021/07/12 03:00:54;;;;;;;;;;;;;;;19.18;67.95;99427.03;5092124;28;830;-63
2021/07/12 03:03:21;;;;;;;;;;;;;;;19.31;68.21;99427.66;5092174;28;798;-64
2021/07/12 03:05:51;;;;;;;;;;;;;;;19.71;67.25;99423.75;5091937;28;1947;-64
2021/07/12 03:08:22;;;;;;;;;;;;;;;20.04;66.60;99417.34;5092102;28;858;-64
2021/07/12 03:10:54;;;;;;;;;;;;;;;20.30;65.64;99412.03;5091959;28;857;-64
2021/07/12 03:13:35;;;;;;;;;;;;;;;20.54;64.95;99419.63;5092476;28;999;-64
2021/07/12 03:16:01;;;;;;;;;;;;;;;20.64;64.91;99420.38;5091736;28;1174;-65
2021/07/12 03:18:31;;;;;;;;;;;;;;;20.69;64.61;99411.28;5091908;28;874;-64
2021/07/12 03:21:03;;;;;;;;;;;;;;;20.70;64.83;99410.03;5091693;28;881;-65
2021/07/12 03:23:39;;;;;;;;;;;;;;;20.69;65.10;99414.84;5092120;28;829;-63
2021/07/12 03:26:06;;;;;;;;;;;;;;;20.79;64.72;99419.13;5091852;28;817;-63
2021/07/12 03:28:33;;;;;;;;;;;;;;;20.97;64.27;99411.78;5091744;28;834;-64
2021/07/12 03:31:00;;;;;;;;;;;;;;;21.13;63.83;99411.31;5091697;28;818;-64
2021/07/12 03:33:29;;;;;;;;;;;;;;;21.18;64.02;99409.84;5091689;28;893;-64
2021/07/12 03:35:56;;;;;;;;;;;;;;;21.23;63.83;99417.63;5091831;28;845;-64
2021/07/12 03:38:23;;;;;;;;;;;;;;;21.34;63.62;99426.22;5091680;28;822;-64
2021/07/12 03:40:50;;;;;;;;;;;;;;;21.53;63.44;99417.56;5091660;28;857;-64
2021/07/12 03:43:18;;;;;;;;;;;;;;;21.89;62.35;99421.19;5091853;28;818;-63
2021/07/12 03:45:54;;;;;;;;;;;;;;;22.34;61.28;99427.44;5091560;28;1890;-64
2021/07/12 03:48:32;;;;;;;;;;;;;;;22.68;59.99;99422.19;5092095;28;834;-64
2021/07/12 03:50:59;;;;;;;;;;;;;;;22.61;60.26;99421.34;5091473;28;814;-64
2021/07/12 03:53:26;;;;;;;;;;;;;;;22.54;60.31;99418.97;5091484;28;875;-64
2021/07/12 03:55:52;;;;;;;;;;;;;;;22.50;60.77;99409.97;5091490;28;837;-64
2021/07/12 03:58:18;;;;;;;;;;;;;;;22.42;60.93;99403.22;5091462;28;913;-65
2021/07/12 04:00:45;;;;;;;;;;;;;;;22.37;60.51;99401.88;5091355;28;889;-64
2021/07/12 04:03:11;;;;;;;;;;;;;;;22.34;61.21;99402.88;5091456;28;920;-64
2021/07/12 04:05:38;;;;;;;;;;;;;;;22.35;61.48;99395.22;5091349;28;1910;-64
2021/07/12 04:08:04;;;;;;;;;;;;;;;22.37;61.51;99403.94;5093414;28;861;-63
2021/07/12 04:10:30;;;;;;;;;;;;;;;22.47;60.99;99401.72;5095435;28;806;-63
2021/07/12 04:12:57;;;;;;;;;;;;;;;22.60;60.57;99402.16;5095595;28;934;-64
2021/07/12 04:15:25;;;;;;;;;;;;;;;22.78;60.19;99404.63;5095118;28;1225;-63
2021/07/12 04:17:51;;;;;;;;;;;;;;;22.91;59.85;99412.69;5095231;28;830;-64
2021/07/12 04:20:18;;;;;;;;;;;;;;;23.00;59.97;99417.38;5095349;28;922;-63
2021/07/12 04:22:45;;;;;;;;;;;;;;;23.11;59.92;99413.94;5095474;28;866;-64
2021/07/12 04:25:13;;;;;;;;;;;;;;;23.18;59.33;99417.09;5095044;28;1910;-62
2021/07/12 04:27:41;;;;;;;;;;;;;;;23.33;59.25;99422.59;5095058;28;1064;-64
2021/07/12 04:30:08;;;;;;;;;;;;;;;23.63;58.71;99414.59;5095105;28;869;-64
2021/07/12 04:32:35;;;;;;;;;;;;;;;24.07;57.06;99417.44;5094949;28;858;-64
2021/07/12 04:35:02;;;;;;;;;;;;;;;24.27;57.03;99414.47;5094943;28;869;-64
2021/07/12 04:37:28;;;;;;;;;;;;;;;24.37;56.20;99417.88;5095244;28;814;-63
2021/07/12 04:39:54;;;;;;;;;;;;;;;24.54;55.96;99421.53;5094797;28;929;-64
2021/07/12 04:42:20;;;;;;;;;;;;;;;25.01;54.93;99421.13;5094856;28;830;-64
2021/07/12 04:44:47;;;;;;;;;;;;;;;25.41;53.87;99419.09;5094638;28;1996;-64
2021/07/12 04:47:14;;;;;;;;;;;;;;;25.31;53.87;99420.69;5076447;28;1293;-64
2021/07/12 04:49:41;;;;;;;;;;;;;;;25.14;54.56;99420.63;5094621;28;822;-64
2021/07/12 04:52:07;;;;;;;;;;;;;;;25.03;55.07;99419.34;5094696;28;881;-62
2021/07/12 04:54:34;;;;;;;;;;;;;;;24.83;55.14;99417.50;5094549;28;826;-63
2021/07/12 04:57:01;;;;;;;;;;;;;;;24.70;55.83;99417.22;5094502;28;795;-63
2021/07/12 04:59:28;;;;;;;;;;;;;;;24.67;56.40;99417.47;5094519;28;814;-64
2021/07/12 05:01:55;;;;;;;;;;;;;;;24.65;56.65;99417.97;5094367;28;1066;-63
2021/07/12 05:04:22;;;;;;;;;;;;;;;24.69;56.57;99415.69;5094393;28;1967;-64
2021/07/12 05:06:48;;;;;;;;;;;;;;;24.76;56.69;99415.19;5094338;28;802;-62
2021/07/12 05:14:26;;;;;;;;;;;;;;;25.47;54.53;99409.31;5332225;22;1502;-62
2021/07/12 05:16:53;;;;;;;;;;;;;;;25.79;53.10;99409.03;5073989;28;817;-62
2021/07/12 05:19:20;;;;;;;;;;;;;;;26.47;52.18;99418.09;5072849;28;844;-63
2021/07/12 05:21:47;;;;;;;;;;;;;;;27.34;50.04;99417.09;5074082;28;814;-64
2021/07/12 05:24:14;;;;;;;;;;;;;;;28.02;49.07;99417.97;5073731;28;1914;-64
2021/07/12 05:26:41;;;;;;;;;;;;;;;28.36;47.55;99419.63;5073800;28;830;-62
2021/07/12 05:29:07;;;;;;;;;;;;;;;28.57;46.96;99425.59;5073669;28;865;-63
2021/07/12 05:31:34;;;;;;;;;;;;;;;28.81;46.52;99414.16;5073800;28;822;-63
2021/07/12 05:34:00;;;;;;;;;;;;;;;29.07;45.53;99421.28;5073632;28;837;-63
2021/07/12 05:36:27;;;;;;;;;;;;;;;29.14;45.66;99419.91;5073514;28;905;-62
2021/07/12 05:38:54;;;;;;;;;;;;;;;29.25;44.97;99423.34;5073561;28;912;-62
2021/07/12 05:41:20;;;;;;;;;;;;;;;29.41;44.63;99427.22;5073426;28;908;-62
2021/07/12 05:43:46;;;;;;;;;;;;;;;29.66;44.28;99429.88;5073252;28;1890;-61
2021/07/12 05:46:13;;;;;;;;;;;;;;;29.84;44.49;99423.34;5073408;28;873;-61
2021/07/12 05:48:40;;;;;;;;;;;;;;;29.84;44.05;99431.91;5073720;28;869;-62
2021/07/12 05:51:07;;;;;;;;;;;;;;;29.76;43.85;99433.88;5073230;28;901;-61
2021/07/12 05:53:35;;;;;;;;;;;;;;;29.82;43.56;99436.63;5073247;28;838;-61
2021/07/12 05:56:01;;;;;;;;;;;;;;;29.89;42.85;99439.59;5073084;28;901;-61
2021/07/12 05:58:28;;;;;;;;;;;;;;;29.89;43.46;99438.81;5073090;28;814;-61
2021/07/12 06:00:55;;;;;;;;;;;;;;;29.93;43.59;99444.94;5073064;28;846;-61
2021/07/12 06:03:22;;;;;;;;;;;;;;;29.98;43.69;99446.16;5072969;28;926;-61
2021/07/12 06:05:48;;;;;;;;;;;;;;;29.98;42.72;99437.59;5072872;28;1952;-61
2021/07/12 06:08:15;;;;;;;;;;;;;;;29.99;44.12;99436.31;5072943;28;831;-61
2021/07/12 06:10:41;;;;;;;;;;;;;;;30.31;42.95;99445.53;5072815;28;952;-62
2021/07/12 06:13:08;;;;;;;;;;;;;;;30.36;42.54;99440.25;5072887;28;914;-62
2021/07/12 06:15:35;;;;;;;;;;;;;;;30.39;42.68;99444.88;5072563;28;1924;-62
2021/07/12 06:18:01;;;;;;;;;;;;;;;30.51;42.10;99437.59;5072775;28;845;-60
2021/07/12 06:20:27;;;;;;;;;;;;;;;30.58;42.54;99439.78;5072609;28;850;-61
2021/07/12 06:22:54;;;;;;;;;;;;;;;30.68;42.16;99437.25;5072639;28;888;-60
2021/07/12 06:25:20;;;;;;;;;;;;;;;30.70;41.75;99443.16;5072510;28;1909;-61
2021/07/12 06:27:47;;;;;;;;;;;;;;;30.79;41.93;99439.84;5054553;28;874;-61
2021/07/12 06:30:15;;;;;;;;;;;;;;;31.10;41.06;99443.81;5072152;28;853;-61
2021/07/12 06:32:41;;;;;;;;;;;;;;;31.14;41.32;99438.53;5072495;28;869;-61
2021/07/12 06:35:09;;;;;;;;;;;;;;;31.22;41.25;99450.03;5072309;28;894;-61
2021/07/12 06:37:35;;;;;;;;;;;;;;;31.09;40.88;99447.25;5072389;28;892;-61
2021/07/12 06:40:02;;;;;;;;;;;;;;;31.37;40.23;99448.63;5072223;28;890;-62
2021/07/12 06:42:29;;;;;;;;;;;;;;;31.47;40.34;99455.41;5072157;28;822;-61
2021/07/12 06:44:57;;;;;;;;;;;;;;;31.40;39.81;99450.38;5072138;28;1889;-62
2021/07/12 06:47:28;;;;;;;;;;;;;;;31.31;39.63;99446.69;5072196;28;841;-62
2021/07/12 06:49:54;;;;;;;;;;;;;;;31.47;39.81;99446.84;5072063;28;881;-61
2021/07/12 06:52:20;;;;;;;;;;;;;;;31.61;39.59;99453.28;5072071;28;858;-61
2021/07/12 06:54:47;;;;;;;;;;;;;;;31.82;39.58;99445.44;5072015;28;993;-61
2021/07/12 06:57:13;;;;;;;;;;;;;;;31.92;38.74;99445.69;5071871;28;870;-61
2021/07/12 06:59:40;;;;;;;;;;;;;;;31.81;38.67;99449.59;5072041;28;885;-61
2021/07/12 07:02:07;;;;;;;;;;;;;;;31.80;39.03;99442.38;5071910;28;814;-61
2021/07/12 07:04:34;;;;;;;;;;;;;;;31.80;38.23;99444.47;5071786;28;1886;-61
2021/07/12 07:07:01;;;;;;;;;;;;;;;31.78;38.71;99445.03;5071954;28;904;-61
2021/07/12 07:09:28;;;;;;;;;;;;;;;31.82;38.97;99438.97;5072137;28;853;-61
2021/07/12 07:11:54;;;;;;;;;;;;;;;31.71;38.56;99437.94;5071654;28;960;-61
2021/07/12 07:14:21;;;;;;;;;;;;;;;31.43;39.92;99444.38;5071640;28;1241;-62
2021/07/12 07:16:47;;;;;;;;;;;;;;;31.68;40.80;99444.00;5071819;28;865;-61
2021/07/12 07:19:14;;;;;;;;;;;;;;;31.70;40.25;99444.19;5071651;28;897;-61
2021/07/12 07:21:41;;;;;;;;;;;;;;;31.82;39.54;99436.88;5071789;28;798;-62
2021/07/12 07:24:06;;;;;;;;;;;;;;;31.74;39.64;99438.91;5071630;28;1996;-61
2021/07/12 07:26:33;;;;;;;;;;;;;;;31.83;38.81;99435.53;5071960;28;854;-61
2021/07/12 07:29:00;;;;;;;;;;;;;;;31.75;39.32;99443.28;5071843;28;782;-61
2021/07/12 07:31:27;;;;;;;;;;;;;;;31.68;38.13;99447.59;5072006;28;861;-61
2021/07/12 07:33:53;;;;;;;;;;;;;;;31.64;38.96;99449.28;5071967;28;802;-61
2021/07/12 07:36:20;;;;;;;;;;;;;;;31.81;38.39;99449.59;5072148;28;846;-61
2021/07/12 07:38:46;;;;;;;;;;;;;;;31.87;38.36;99447.38;5071539;28;968;-62
2021/07/12 07:41:13;;;;;;;;;;;;;;;31.89;38.54;99447.56;5071255;28;847;-61
2021/07/12 07:43:40;;;;;;;;;;;;;;;32.23;38.60;99443.06;5070826;28;877;-61
2021/07/12 07:46:06;;;;;;;;;;;;;;;32.32;37.34;99449.00;5071329;28;1890;-61
2021/07/12 07:48:33;;;;;;;;;;;;;;;32.79;38.27;99449.22;5071427;28;870;-61
2021/07/12 07:51:00;;;;;;;;;;;;;;;33.01;35.96;99447.75;5071324;28;1060;-61
2021/07/12 07:53:27;;;;;;;;;;;;;;;32.90;36.29;99446.00;5071388;28;834;-61
2021/07/12 07:55:52;;;;;;;;;;;;;;;33.09;36.23;99445.72;5071270;28;850;-61
2021/07/12 07:58:19;;;;;;;;;;;;;;;33.28;36.75;99453.94;5071313;28;830;-61
2021/07/12 08:00:46;;;;;;;;;;;;;;;33.42;36.42;99448.81;5071308;28;882;-62
2021/07/12 08:03:12;;;;;;;;;;;;;;;33.15;35.66;99447.06;5071281;28;901;-62
2021/07/12 08:05:38;;;;;;;;;;;;;;;32.97;36.34;99445.28;5071138;28;1893;-62
2021/07/12 08:08:05;;;;;;;;;;;;;;;33.23;35.71;99454.91;5071160;28;910;-61
2021/07/12 08:10:31;;;;;;;;;;;;;;;33.14;35.06;99450.50;5071263;28;790;-61
2021/07/12 08:12:58;;;;;;;;;;;;;;;33.07;35.96;99456.97;5071375;28;1059;-62
2021/07/12 08:15:24;;;;;;;;;;;;;;;33.03;36.32;99451.59;5071004;28;1346;-61
2021/07/12 08:17:52;;;;;;;;;;;;;;;33.25;35.81;99452.25;5070990;28;920;-62
2021/07/12 08:20:19;;;;;;;;;;;;;;;33.31;34.41;99459.31;5071163;28;826;-61
2021/07/12 08:22:47;;;;;;;;;;;;;;;33.20;34.70;99464.63;5071098;28;807;-62
2021/07/12 08:25:14;;;;;;;;;;;;;;;33.10;35.20;99456.59;5070996;28;1905;-61
2021/07/12 08:27:39;;;;;;;;;;;;;;;33.24;35.88;99456.44;5071007;28;834;-62
2021/07/12 08:30:07;;;;;;;;;;;;;;;33.30;34.57;99446.31;5071079;28;881;-62
2021/07/12 08:32:34;;;;;;;;;;;;;;;33.32;35.30;99455.09;5070970;28;822;-61
2021/07/12 08:35:03;;;;;;;;;;;;;;;33.53;35.13;99457.03;5070948;28;798;-62
2021/07/12 08:37:29;;;;;;;;;;;;;;;33.38;35.43;99451.31;5071249;28;865;-63
2021/07/12 08:39:56;;;;;;;;;;;;;;;33.55;35.55;99454.38;5071097;28;905;-62
2021/07/12 08:42:22;;;;;;;;;;;;;;;33.52;34.75;99447.69;5070872;28;826;-62
2021/07/12 08:44:49;;;;;;;;;;;;;;;33.31;34.52;99444.25;5070710;28;1949;-62
2021/07/12 08:47:15;;;;;;;;;;;;;;;33.32;35.43;99448.63;5070858;28;815;-62
2021/07/12 08:49:42;;;;;;;;;;;;;;;33.37;34.76;99441.94;5070851;28;815;-62
2021/07/12 08:52:09;;;;;;;;;;;;;;;33.51;35.90;99456.84;5070784;28;826;-62
2021/07/12 08:54:37;;;;;;;;;;;;;;;33.31;33.65;99452.81;5073293;28;834;-62
2021/07/12 08:57:04;;;;;;;;;;;;;;;33.44;34.67;99449.78;5074316;28;873;-62
2021/07/12 08:59:32;;;;;;;;;;;;;;;33.43;34.06;99450.34;5074233;28;801;-62
2021/07/12 09:02:01;;;;;;;;;;;;;;;33.39;32.68;99444.22;5074228;28;845;-62
2021/07/12 09:04:28;;;;;;;;;;;;;;;33.33;33.78;99459.50;5074150;28;1878;-61
2021/07/12 09:07:02;;;;;;;;;;;;;;;33.27;33.53;99458.91;5074031;28;901;-61
2021/07/12 09:09:27;;;;;;;;;;;;;;;33.19;33.39;99455.28;5073987;28;929;-62
2021/07/12 09:11:54;;;;;;;;;;;;;;;33.30;34.93;99454.91;5074245;28;1055;-62
2021/07/12 09:14:23;;;;;;;;;;;;;;;33.78;34.25;99451.53;5074165;28;1489;-62
2021/07/12 09:16:56;;;;;;;;;;;;;;;34.04;33.68;99458.94;5073996;28;842;-62
2021/07/12 09:19:32;;;;;;;;;;;;;;;34.17;31.07;99457.97;5073964;28;846;-62
2021/07/12 09:22:00;;;;;;;;;;;;;;;34.00;30.90;99458.56;5073717;28;908;-63
2021/07/12 09:24:31;;;;;;;;;;;;;;;33.64;31.50;99464.50;5073788;28;1914;-62
2021/07/12 09:26:59;;;;;;;;;;;;;;;33.66;32.69;99451.13;5073941;28;830;-63
2021/07/12 09:29:28;;;;;;;;;;;;;;;34.01;33.46;99465.81;5073985;28;873;-63
2021/07/12 09:31:54;;;;;;;;;;;;;;;34.29;33.27;99461.97;5073602;28;896;-62
2021/07/12 09:34:23;;;;;;;;;;;;;;;34.31;32.96;99461.38;5073995;28;909;-63
2021/07/12 09:36:51;;;;;;;;;;;;;;;34.14;32.79;99450.53;5073567;28;870;-63
2021/07/12 09:39:19;;;;;;;;;;;;;;;33.52;33.70;99456.28;5073449;28;798;-62
2021/07/12 09:41:49;;;;;;;;;;;;;;;33.32;34.96;99460.06;5073495;28;913;-62
2021/07/12 09:44:24;;;;;;;;;;;;;;;33.22;32.77;99464.81;5073296;28;1997;-63
2021/07/12 09:46:51;;;;;;;;;;;;;;;32.94;33.92;99464.34;5073441;28;857;-62
2021/07/12 09:49:22;;;;;;;;;;;;;;;32.77;33.43;99464.09;5073294;28;838;-63
2021/07/12 09:51:51;;;;;;;;;;;;;;;32.42;34.49;99462.78;5073463;28;814;-62
2021/07/12 09:54:23;;;;;;;;;;;;;;;32.26;35.80;99456.22;5073203;28;893;-62
2021/07/12 09:56:51;;;;;;;;;;;;;;;32.14;35.09;99458.63;5073248;28;818;-63
2021/07/12 09:59:19;;;;;;;;;;;;;;;31.88;36.26;99457.47;5073135;28;794;-63
2021/07/12 10:01:54;;;;;;;;;;;;;;;31.89;36.50;99463.94;5073088;28;882;-63
2021/07/12 10:04:24;;;;;;;;;;;;;;;31.99;37.58;99455.69;5073023;28;1940;-62
2021/07/12 10:06:52;;;;;;;;;;;;;;;32.09;36.75;99466.03;5072619;28;884;-62
2021/07/12 10:09:22;;;;;;;;;;;;;;;31.95;37.26;99464.56;5073216;28;814;-62
2021/07/12 10:11:53;;;;;;;;;;;;;;;31.78;38.58;99458.53;5072867;28;799;-63
2021/07/12 10:14:21;;;;;;;;;;;;;;;31.77;37.94;99466.31;5072705;28;1249;-63
2021/07/12 10:16:49;;;;;;;;;;;;;;;31.70;39.34;99458.47;5072757;28;806;-63
2021/07/12 10:19:16;;;;;;;;;;;;;;;31.88;38.84;99460.34;5072712;28;860;-64
2021/07/12 10:21:51;;;;;;;;;;;;;;;31.97;37.92;99464.78;5072677;28;811;-63
2021/07/12 10:24:25;;;;;;;;;;;;;;;31.88;37.67;99468.91;5072607;28;1959;-63
2021/07/12 10:26:54;;;;;;;;;;;;;;;31.88;38.87;99465.28;5072626;28;823;-63
2021/07/12 10:29:30;;;;;;;;;;;;;;;32.03;38.34;99470.34;5072501;28;992;-62
2021/07/12 10:31:59;;;;;;;;;;;;;;;32.29;39.99;99472.25;5072407;28;806;-63
2021/07/12 10:34:31;;;;;;;;;;;;;;;32.42;39.86;99468.50;5072400;28;822;-64
2021/07/12 10:36:59;;;;;;;;;;;;;;;32.52;40.19;99470.28;5072541;28;814;-63
2021/07/12 10:39:44;;;;;;;;;;;;;;;32.63;39.79;99472.06;5072275;28;893;-64
2021/07/12 10:42:10;;;;;;;;;;;;;;;32.68;38.37;99464.66;5072976;28;810;-63
2021/07/12 10:44:55;;;;;;;;;;;;;;;32.53;38.43;99471.06;5072578;28;1883;-63
2021/07/12 10:48:01;;;;;;;;;;;;;;;32.56;38.70;99478.50;5072167;28;850;-63
2021/07/12 10:50:47;;;;;;;;;;;;;;;32.56;38.73;99478.50;4990778;28;1285;-63
2021/07/12 10:53:16;;;;;;;;;;;;;;;32.77;39.45;99472.69;4991043;28;814;-63
2021/07/12 10:55:44;;;;;;;;;;;;;;;32.95;39.34;99479.44;4990743;28;931;-64
2021/07/12 10:58:19;;;;;;;;;;;;;;;32.73;38.52;99481.66;4991065;28;799;-62
2021/07/12 11:00:45;;;;;;;;;;;;;;;32.63;37.82;99477.03;4990809;28;1066;-63
2021/07/12 11:03:30;;;;;;;;;;;;;;;32.78;39.27;99484.91;4991100;28;885;-63
2021/07/12 11:05:57;;;;;;;;;;;;;;;33.05;38.52;99480.44;4990693;28;1969;-63
2021/07/12 11:08:42;;;;;;;;;;;;;;;33.28;39.13;99480.47;4990357;28;1004;-63
2021/07/12 11:11:10;;;;;;;;;;;;;;;33.35;37.80;99467.50;4990560;28;838;-64
2021/07/12 11:13:58;;;;;;;;;;;;;;;33.22;38.56;99488.47;4990174;28;1405;-63
2021/07/12 11:16:34;;;;;;;;;;;;;;;33.20;37.64;99484.66;4989842;28;1667;-63
2021/07/12 11:19:24;;;;;;;;;;;;;;;33.17;38.09;99477.22;4990203;28;902;-63
2021/07/12 11:21:52;;;;;;;;;;;;;;;33.30;37.17;99477.06;5044329;28;1093;-63
2021/07/12 11:24:22;;;;;;;;;;;;;;;33.43;39.21;99479.75;5071581;28;1913;-63
2021/07/12 11:26:52;;;;;;;;;;;;;;;33.57;37.36;99486.06;5071631;28;932;-63
2021/07/12 11:29:29;;;;;;;;;;;;;;;33.78;37.03;99483.03;5071641;28;870;-64
2021/07/12 11:31:58;;;;;;;;;;;;;;;33.99;36.46;99476.31;5071624;28;942;-63
2021/07/12 11:34:39;;;;;;;;;;;;;;;34.48;36.55;99475.09;5071615;28;838;-63
2021/07/12 11:37:14;;;;;;;;;;;;;;;34.89;35.62;99470.94;5071343;28;863;-62
2021/07/12 11:39:43;;;;;;;;;;;;;;;35.23;35.67;99471.72;5071474;28;870;-63
2021/07/12 11:42:23;;;;;;;;;;;;;;;35.18;34.97;99465.63;5071515;28;811;-62
2021/07/12 11:44:51;;;;;;;;;;;;;;;35.10;33.89;99475.59;5071706;28;1948;-63
2021/07/12 11:47:22;;;;;;;;;;;;;;;35.03;34.44;99467.78;5071483;28;914;-63
2021/07/12 11:49:50;;;;;;;;;;;;;;;35.16;34.98;99464.69;5071498;28;826;-63
2021/07/12 11:52:17;;;;;;;;;;;;;;;34.92;34.16;99466.13;5071385;28;866;-63
2021/07/12 11:54:45;;;;;;;;;;;;;;;35.10;34.75;99456.28;5071321;28;790;-63
2021/07/12 11:57:14;;;;;;;;;;;;;;;35.29;33.83;99449.28;5071426;28;874;-63
2021/07/12 11:59:41;;;;;;;;;;;;;;;35.35;33.49;99447.69;5071245;28;957;-63
2021/07/12 12:02:12;;;;;;;;;;;;;;;35.45;34.00;99449.94;5071466;28;807;-64
2021/07/12 12:04:42;;;;;;;;;;;;;;;35.63;34.12;99442.88;5071230;28;1967;-64
2021/07/12 12:07:27;;;;;;;;;;;;;;;35.95;33.44;99444.91;5071158;28;862;-64
2021/07/12 12:09:59;;;;;;;;;;;;;;;35.87;33.21;99449.97;5071196;28;839;-63
2021/07/12 12:12:27;;;;;;;;;;;;;;;36.02;32.58;99439.66;5071234;28;925;-64
2021/07/12 12:14:58;;;;;;;;;;;;;;;36.23;32.84;99436.41;5071194;28;1375;-63
2021/07/12 12:17:25;;;;;;;;;;;;;;;36.45;32.44;99451.88;5071219;28;874;-63
2021/07/12 12:20:04;;;;;;;;;;;;;;;36.71;32.71;99442.53;5071346;28;854;-63
2021/07/12 12:22:31;;;;;;;;;;;;;;;36.62;31.66;99448.22;5071107;28;807;-63
2021/07/12 12:24:59;;;;;;;;;;;;;;;36.63;31.15;99444.75;5070908;28;1975;-63
2021/07/12 12:27:25;;;;;;;;;;;;;;;36.88;31.12;99444.63;5071072;28;866;-64
2021/07/12 12:29:52;;;;;;;;;;;;;;;37.35;31.35;99447.59;5072785;28;2458;-63
2021/07/12 12:32:34;;;;;;;;;;;;;;;37.44;31.34;99451.88;5074799;28;865;-63
2021/07/12 12:35:05;;;;;;;;;;;;;;;35.97;33.37;99462.31;5074705;28;962;-62
2021/07/12 12:37:39;;;;;;;;;;;;;;;34.33;36.68;99473.81;5074661;28;814;-62
2021/07/12 12:40:16;;;;;;;;;;;;;;;32.84;39.92;99482.63;5074523;28;1012;-62
2021/07/12 12:42:44;;;;;;;;;;;;;;;31.76;42.94;99493.38;5056710;28;881;-63
2021/07/12 12:45:11;;;;;;;;;;;;;;;31.20;44.53;99506.16;5074549;28;1894;-62
2021/07/12 12:47:43;;;;;;;;;;;;;;;30.20;44.70;99519.06;5074697;28;805;-62
2021/07/12 12:50:13;;;;;;;;;;;;;;;28.88;44.29;99532.22;5074538;28;834;-63
2021/07/12 12:52:41;;;;;;;;;;;;;;;27.90;44.76;99533.75;5074414;28;798;-62
2021/07/12 12:55:11;;;;;;;;;;;;;;;27.42;44.48;99525.88;5074335;28;810;-63
2021/07/12 12:57:41;;;;;;;;;;;;;;;27.20;45.00;99518.25;5074307;28;872;-62
2021/07/12 13:00:12;;;;;;;;;;;;;;;27.00;45.63;99508.06;5074348;28;865;-64
2021/07/12 13:02:43;;;;;;;;;;;;;;;26.76;45.66;99505.88;5074245;28;901;-62
2021/07/12 13:05:19;;;;;;;;;;;;;;;26.50;46.98;99515.47;5073982;28;1893;-62
2021/07/12 13:07:49;;;;;;;;;;;;;;;26.21;48.83;99536.66;5074216;28;818;-62
2021/07/12 13:10:21;;;;;;;;;;;;;;;26.02;49.73;99550.59;5074254;28;849;-62
2021/07/12 13:12:49;;;;;;;;;;;;;;;25.92;50.54;99552.88;5074253;28;913;-62
2021/07/12 13:15:20;;;;;;;;;;;;;;;25.89;51.36;99541.84;5073853;28;1280;-62
2021/07/12 13:17:50;;;;;;;;;;;;;;;26.15;51.16;99542.31;5073875;28;889;-61
2021/07/12 13:20:23;;;;;;;;;;;;;;;26.26;50.70;99538.69;5074128;28;905;-61